createdAt,value
2017-08-25T00:01:22.560Z,20.00
2017-08-25T00:03:48.939Z,20.00
2017-08-25T00:06:15.347Z,20.00
2017-08-25T00:08:41.665Z,20.00
2017-08-25T00:11:08.494Z,20.00
2017-08-25T00:13:34.873Z,20.00
2017-08-25T00:16:01.209Z,20.00
2017-08-25T00:18:27.559Z,20.00
2017-08-25T00:20:53.938Z,20.00
2017-08-25T00:23:20.263Z,20.00
2017-08-25T00:25:46.695Z,20.00
2017-08-25T00:28:13.068Z,20.00
2017-08-25T00:30:39.428Z,20.00
2017-08-25T00:33:05.800Z,20.00
2017-08-25T00:35:32.171Z,19.90
2017-08-25T00:37:58.527Z,20.00
2017-08-25T00:40:24.870Z,19.90
2017-08-25T00:42:51.322Z,19.90
2017-08-25T00:45:17.672Z,19.90
2017-08-25T00:47:44.009Z,19.90
2017-08-25T00:50:10.515Z,19.90
2017-08-25T00:52:36.893Z,19.90
2017-08-25T00:55:03.267Z,19.90
2017-08-25T00:57:29.715Z,19.90
2017-08-25T00:59:56.109Z,19.90
2017-08-25T01:02:22.460Z,19.90
2017-08-25T01:04:48.805Z,20.00
2017-08-25T01:07:15.201Z,19.90
2017-08-25T01:09:41.604Z,19.90
2017-08-25T01:12:07.971Z,19.90
2017-08-25T01:14:34.358Z,20.00
2017-08-25T01:17:00.963Z,20.00
2017-08-25T01:19:27.381Z,20.00
2017-08-25T01:21:53.749Z,20.00
2017-08-25T01:24:20.201Z,20.00
2017-08-25T01:26:46.572Z,20.00
2017-08-25T01:29:12.942Z,20.00
2017-08-25T01:31:39.390Z,20.00
2017-08-25T01:34:05.769Z,20.00
2017-08-25T01:36:33.298Z,20.00
2017-08-25T01:38:59.734Z,20.00
2017-08-25T01:41:26.208Z,20.00
2017-08-25T01:43:52.574Z,20.00
2017-08-25T01:46:18.926Z,20.00
2017-08-25T01:48:45.325Z,20.00
2017-08-25T01:51:11.757Z,20.10
2017-08-25T01:53:38.180Z,20.00
2017-08-25T01:56:04.555Z,20.00
2017-08-25T01:58:30.976Z,20.00
2017-08-25T02:00:57.387Z,20.00
2017-08-25T02:03:23.927Z,20.00
2017-08-25T02:05:50.293Z,20.00
2017-08-25T02:08:16.693Z,20.00
2017-08-25T02:10:43.077Z,20.00
2017-08-25T02:13:09.486Z,20.00
2017-08-25T02:15:36.185Z,20.00
2017-08-25T02:18:02.613Z,20.10
2017-08-25T02:20:29.042Z,20.00
2017-08-25T02:22:55.389Z,20.00
2017-08-25T02:25:21.776Z,20.00
2017-08-25T02:27:48.098Z,20.00
2017-08-25T02:30:14.515Z,20.10
2017-08-25T02:32:40.899Z,20.10
2017-08-25T02:35:07.349Z,20.10
2017-08-25T02:37:33.680Z,20.10
2017-08-25T02:40:00.080Z,20.10
2017-08-25T02:42:26.467Z,20.10
2017-08-25T02:44:52.812Z,20.10
2017-08-25T02:47:19.177Z,20.10
2017-08-25T02:49:45.545Z,20.10
2017-08-25T02:52:11.897Z,20.10
2017-08-25T02:54:38.213Z,20.10
2017-08-25T02:57:04.620Z,20.10
2017-08-25T02:59:30.963Z,20.10
2017-08-25T03:01:57.322Z,20.10
2017-08-25T03:04:23.690Z,20.10
2017-08-25T03:06:50.023Z,20.10
2017-08-25T03:09:16.412Z,20.00
2017-08-25T03:11:42.793Z,20.00
2017-08-25T03:14:09.160Z,20.00
2017-08-25T03:16:35.564Z,20.00
2017-08-25T03:19:01.946Z,20.00
2017-08-25T03:21:28.269Z,20.00
2017-08-25T03:23:54.636Z,19.90
2017-08-25T03:26:20.951Z,19.90
2017-08-25T03:28:47.433Z,19.90
2017-08-25T03:31:13.803Z,19.80
2017-08-25T03:33:40.142Z,19.80
2017-08-25T03:36:06.554Z,19.80
2017-08-25T03:38:32.875Z,19.80
2017-08-25T03:40:59.309Z,19.70
2017-08-25T03:43:25.656Z,19.70
2017-08-25T03:45:52.016Z,19.70
2017-08-25T03:48:18.405Z,19.70
2017-08-25T03:50:44.729Z,19.70
2017-08-25T03:53:11.047Z,19.70
2017-08-25T03:55:37.472Z,19.60
2017-08-25T03:58:03.836Z,19.60
2017-08-25T04:00:30.236Z,19.60
2017-08-25T04:02:56.579Z,19.60
2017-08-25T04:05:22.961Z,19.60
2017-08-25T04:07:49.307Z,19.60
2017-08-25T04:10:15.711Z,19.50
2017-08-25T04:12:42.091Z,19.50
2017-08-25T04:15:08.456Z,19.50
2017-08-25T04:17:35.096Z,19.50
2017-08-25T04:20:01.426Z,19.50
2017-08-25T04:22:27.813Z,19.50
2017-08-25T04:24:54.247Z,19.50
2017-08-25T04:27:20.586Z,19.40
2017-08-25T04:29:46.987Z,19.50
2017-08-25T04:32:13.344Z,19.40
2017-08-25T04:34:39.683Z,19.40
2017-08-25T04:37:06.121Z,19.40
2017-08-25T04:39:32.450Z,19.40
2017-08-25T04:41:58.869Z,19.40
2017-08-25T04:44:25.258Z,19.40
2017-08-25T04:46:51.614Z,19.40
2017-08-25T04:49:18.101Z,19.40
2017-08-25T04:51:44.422Z,19.40
2017-08-25T04:54:10.771Z,19.40
2017-08-25T04:56:37.130Z,19.40
2017-08-25T04:59:03.434Z,19.40
2017-08-25T05:01:30.107Z,19.50
2017-08-25T05:03:56.534Z,19.50
2017-08-25T05:06:22.893Z,19.50
2017-08-25T05:08:49.283Z,19.50
2017-08-25T05:11:15.712Z,19.50
2017-08-25T05:13:42.217Z,19.50
2017-08-25T05:16:08.581Z,19.50
2017-08-25T05:18:34.959Z,19.60
2017-08-25T05:21:01.379Z,19.60
2017-08-25T05:23:27.786Z,19.60
2017-08-25T05:25:54.145Z,19.60
2017-08-25T05:28:20.533Z,19.60
2017-08-25T05:30:47.075Z,19.60
2017-08-25T05:33:13.397Z,19.60
2017-08-25T05:35:39.742Z,19.60
2017-08-25T05:38:06.116Z,19.60
2017-08-25T05:40:32.495Z,19.60
2017-08-25T05:42:58.844Z,19.60
2017-08-25T05:45:25.321Z,19.70
2017-08-25T05:47:51.627Z,19.70
2017-08-25T05:50:17.984Z,19.70
2017-08-25T05:52:44.354Z,19.70
2017-08-25T05:55:10.666Z,19.70
2017-08-25T05:57:37.049Z,19.70
2017-08-25T06:00:03.384Z,19.70
2017-08-25T06:02:30.189Z,19.80
2017-08-25T06:04:56.520Z,19.80
2017-08-25T06:07:22.884Z,19.80
2017-08-25T06:09:49.239Z,19.80
2017-08-25T06:12:15.586Z,19.90
2017-08-25T06:14:41.974Z,19.90
2017-08-25T06:17:08.565Z,19.90
2017-08-25T06:19:34.937Z,20.00
2017-08-25T06:22:01.632Z,20.10
2017-08-25T06:24:28.038Z,20.30
2017-08-25T06:26:54.443Z,20.50
2017-08-25T06:29:20.911Z,20.70
2017-08-25T06:31:47.565Z,20.90
2017-08-25T06:34:13.882Z,21.00
2017-08-25T06:36:40.251Z,21.10
2017-08-25T06:39:06.618Z,21.30
2017-08-25T06:41:32.948Z,21.40
2017-08-25T06:43:59.339Z,21.50
2017-08-25T06:46:25.695Z,21.60
2017-08-25T06:48:52.155Z,21.60
2017-08-25T06:51:18.606Z,21.70
2017-08-25T06:53:44.914Z,21.70
2017-08-25T06:56:11.531Z,21.80
2017-08-25T06:58:37.928Z,21.90
2017-08-25T07:01:04.260Z,22.00
2017-08-25T07:03:30.659Z,22.00
2017-08-25T07:05:57.023Z,22.00
2017-08-25T07:08:23.361Z,22.10
2017-08-25T07:10:49.723Z,22.20
2017-08-25T07:13:16.040Z,22.20
2017-08-25T07:15:42.367Z,22.30
2017-08-25T07:18:08.737Z,22.30
2017-08-25T07:20:35.198Z,22.40
2017-08-25T07:23:01.564Z,22.40
2017-08-25T07:25:27.908Z,22.40
2017-08-25T07:27:54.295Z,22.40
2017-08-25T07:30:20.701Z,22.50
2017-08-25T07:32:47.049Z,22.50
2017-08-25T07:35:13.411Z,22.60
2017-08-25T07:37:39.798Z,22.60
2017-08-25T07:40:06.116Z,22.70
2017-08-25T07:42:32.508Z,22.70
2017-08-25T07:44:58.925Z,22.70
2017-08-25T07:47:25.307Z,22.80
2017-08-25T07:49:51.695Z,22.90
2017-08-25T07:52:18.366Z,22.90
2017-08-25T07:54:44.778Z,23.00
2017-08-25T07:57:11.111Z,23.10
2017-08-25T07:59:37.452Z,23.10
2017-08-25T08:02:03.861Z,23.20
2017-08-25T08:04:30.199Z,23.30
2017-08-25T08:06:56.580Z,23.30
2017-08-25T08:09:22.896Z,23.40
2017-08-25T08:11:49.382Z,23.50
2017-08-25T08:14:15.726Z,23.50
2017-08-25T08:16:42.079Z,23.60
2017-08-25T08:19:08.577Z,23.70
2017-08-25T08:21:34.899Z,23.80
2017-08-25T08:24:01.290Z,23.80
2017-08-25T08:26:27.656Z,23.80
2017-08-25T08:28:53.998Z,23.90
2017-08-25T08:31:20.408Z,24.00
2017-08-25T08:33:46.851Z,24.00
2017-08-25T08:36:19.322Z,24.10
2017-08-25T08:38:45.674Z,24.10
2017-08-25T08:41:12.091Z,24.20
2017-08-25T08:43:38.467Z,24.20
2017-08-25T08:46:04.838Z,24.20
2017-08-25T08:48:31.220Z,24.20
2017-08-25T08:50:57.574Z,24.30
2017-08-25T08:53:23.899Z,24.30
2017-08-25T08:55:50.279Z,24.30
2017-08-25T08:58:16.600Z,24.40
2017-08-25T09:00:42.984Z,24.40
2017-08-25T09:03:09.576Z,24.40
2017-08-25T09:05:42.166Z,24.50
2017-08-25T09:08:08.572Z,24.50
2017-08-25T09:10:34.914Z,24.60
2017-08-25T09:13:01.292Z,24.60
2017-08-25T09:15:28.300Z,24.70
2017-08-25T09:17:54.714Z,24.80
2017-08-25T09:20:21.150Z,24.90
2017-08-25T09:22:47.500Z,24.90
2017-08-25T09:25:13.928Z,25.00
2017-08-25T09:27:40.289Z,25.00
2017-08-25T09:30:06.813Z,25.00
2017-08-25T09:32:33.188Z,25.00
2017-08-25T09:34:59.563Z,25.10
2017-08-25T09:37:25.915Z,25.20
2017-08-25T09:39:52.334Z,25.30
2017-08-25T09:42:18.649Z,25.40
2017-08-25T09:44:44.983Z,25.40
2017-08-25T09:47:11.340Z,25.40
2017-08-25T09:49:37.792Z,25.50
2017-08-25T09:52:04.173Z,25.60
2017-08-25T09:54:30.548Z,25.60
2017-08-25T09:56:56.958Z,25.70
2017-08-25T09:59:23.347Z,25.80
2017-08-25T10:01:49.723Z,25.80
2017-08-25T10:04:16.091Z,25.90
2017-08-25T10:06:42.495Z,26.00
2017-08-25T10:09:08.826Z,26.00
2017-08-25T10:11:35.213Z,26.00
2017-08-25T10:14:01.580Z,26.10
2017-08-25T10:16:27.896Z,26.10
2017-08-25T10:18:54.338Z,26.20
2017-08-25T10:21:20.973Z,26.30
2017-08-25T10:23:47.314Z,26.30
2017-08-25T10:26:13.812Z,26.30
2017-08-25T10:28:40.197Z,26.30
2017-08-25T10:31:06.563Z,26.40
2017-08-25T10:33:41.900Z,26.30
2017-08-25T10:36:20.657Z,26.40
2017-08-25T10:38:59.403Z,26.40
2017-08-25T10:41:37.931Z,26.50
2017-08-25T10:44:16.644Z,26.50
2017-08-25T10:46:43.068Z,26.60
2017-08-25T10:49:09.447Z,26.70
2017-08-25T10:51:35.838Z,26.80
2017-08-25T10:54:02.159Z,26.80
2017-08-25T10:56:28.516Z,26.80
2017-08-25T10:58:54.845Z,26.90
2017-08-25T11:01:21.239Z,26.90
2017-08-25T11:03:47.605Z,26.90
2017-08-25T11:06:13.940Z,27.00
2017-08-25T11:08:40.307Z,27.00
2017-08-25T11:11:06.716Z,27.10
2017-08-25T11:13:33.269Z,27.10
2017-08-25T11:15:59.683Z,27.20
2017-08-25T11:18:26.250Z,27.20
2017-08-25T11:20:52.707Z,27.30
2017-08-25T11:23:19.082Z,27.30
2017-08-25T11:25:45.534Z,27.40
2017-08-25T11:28:12.328Z,27.40
2017-08-25T11:30:38.666Z,27.40
2017-08-25T11:33:05.083Z,27.40
2017-08-25T11:35:31.529Z,27.40
2017-08-25T11:37:57.865Z,27.40
2017-08-25T11:40:24.289Z,27.50
2017-08-25T11:42:50.688Z,27.50
2017-08-25T11:45:17.091Z,27.50
2017-08-25T11:47:43.494Z,27.50
2017-08-25T11:50:09.856Z,27.50
2017-08-25T11:52:36.334Z,27.60
2017-08-25T11:55:02.962Z,27.60
2017-08-25T11:57:29.458Z,27.60
2017-08-25T11:59:55.938Z,27.60
2017-08-25T12:02:22.626Z,27.60
2017-08-25T12:04:49.259Z,27.70
2017-08-25T12:07:15.628Z,27.70
2017-08-25T12:09:41.983Z,27.80
2017-08-25T12:12:08.376Z,27.80
2017-08-25T12:14:34.814Z,27.80
2017-08-25T12:17:01.181Z,27.80
2017-08-25T12:19:27.560Z,27.80
2017-08-25T12:21:54.018Z,27.80
2017-08-25T12:24:20.404Z,27.80
2017-08-25T12:26:46.738Z,27.80
2017-08-25T12:29:13.117Z,27.80
2017-08-25T12:31:39.504Z,27.80
2017-08-25T12:34:05.819Z,27.80
2017-08-25T12:36:32.182Z,27.90
2017-08-25T12:38:58.514Z,27.90
2017-08-25T12:41:24.895Z,28.00
2017-08-25T12:43:51.262Z,28.00
2017-08-25T12:46:18.017Z,27.90
2017-08-25T12:48:44.379Z,27.90
2017-08-25T12:51:10.744Z,27.90
2017-08-25T12:53:37.147Z,27.80
2017-08-25T12:56:03.500Z,27.80
2017-08-25T12:58:29.890Z,27.80
2017-08-25T13:00:56.375Z,27.90
2017-08-25T13:03:22.700Z,27.90
2017-08-25T13:05:49.247Z,28.00
2017-08-25T13:08:15.882Z,28.00
2017-08-25T13:10:42.380Z,28.00
2017-08-25T13:13:08.710Z,28.10
2017-08-25T13:15:35.077Z,28.10
2017-08-25T13:18:01.430Z,28.10
2017-08-25T13:20:27.816Z,28.20
2017-08-25T13:22:54.188Z,28.20
2017-08-25T13:25:20.590Z,28.30
2017-08-25T13:27:46.967Z,28.30
2017-08-25T13:30:13.308Z,28.30
2017-08-25T13:32:39.737Z,28.20
2017-08-25T13:35:06.053Z,28.30
2017-08-25T13:37:32.416Z,28.30
2017-08-25T13:39:58.745Z,28.30
2017-08-25T13:42:25.156Z,28.30
2017-08-25T13:44:51.546Z,28.40
2017-08-25T13:47:17.916Z,28.40
2017-08-25T13:49:44.745Z,28.40
2017-08-25T13:52:11.084Z,28.50
2017-08-25T13:54:37.481Z,28.50
2017-08-25T13:57:03.885Z,28.50
2017-08-25T13:59:30.460Z,28.40
2017-08-25T14:01:56.859Z,28.40
2017-08-25T14:04:23.174Z,28.40
2017-08-25T14:06:49.498Z,28.40
2017-08-25T14:09:15.871Z,28.30
2017-08-25T14:11:42.189Z,28.30
2017-08-25T14:14:08.510Z,28.20
2017-08-25T14:16:34.898Z,28.20
2017-08-25T14:19:01.249Z,28.20
2017-08-25T14:21:27.657Z,28.20
2017-08-25T14:23:53.978Z,28.20
2017-08-25T14:26:20.365Z,28.20
2017-08-25T14:28:46.747Z,28.20
2017-08-25T14:31:13.148Z,28.30
2017-08-25T14:33:39.463Z,28.30
2017-08-25T14:36:05.813Z,28.40
2017-08-25T14:38:32.210Z,28.40
2017-08-25T14:40:58.530Z,28.40
2017-08-25T14:43:24.920Z,28.40
2017-08-25T14:45:51.330Z,28.30
2017-08-25T14:48:17.731Z,28.30
2017-08-25T14:50:44.217Z,28.30
2017-08-25T14:53:11.043Z,28.30
2017-08-25T14:55:37.602Z,28.30
2017-08-25T14:58:04.018Z,28.30
2017-08-25T15:00:30.357Z,28.30
2017-08-25T15:02:56.676Z,28.30
2017-08-25T15:05:23.029Z,28.30
2017-08-25T15:07:49.356Z,28.40
2017-08-25T15:10:15.683Z,28.40
2017-08-25T15:12:42.108Z,28.40
2017-08-25T15:15:08.484Z,28.40
2017-08-25T15:17:34.873Z,28.40
2017-08-25T15:20:01.227Z,28.30
2017-08-25T15:22:27.542Z,28.30
2017-08-25T15:24:54.174Z,28.30
2017-08-25T15:27:20.495Z,28.30
2017-08-25T15:29:46.821Z,28.40
2017-08-25T15:32:13.193Z,28.40
2017-08-25T15:34:39.775Z,28.40
2017-08-25T15:37:06.192Z,28.40
2017-08-25T15:39:32.557Z,28.40
2017-08-25T15:41:58.917Z,28.30
2017-08-25T15:44:25.317Z,28.30
2017-08-25T15:46:51.743Z,28.30
2017-08-25T15:49:18.188Z,28.30
2017-08-25T15:51:44.620Z,28.30
2017-08-25T15:54:11.089Z,28.30
2017-08-25T15:56:37.560Z,28.30
2017-08-25T15:59:04.053Z,28.30
2017-08-25T16:01:30.408Z,28.20
2017-08-25T16:03:56.852Z,28.20
2017-08-25T16:06:23.321Z,28.20
2017-08-25T16:08:49.647Z,28.10
2017-08-25T16:11:16.113Z,28.10
2017-08-25T16:13:43.490Z,28.10
2017-08-25T16:16:09.822Z,28.10
2017-08-25T16:18:36.181Z,28.10
2017-08-25T16:21:02.566Z,28.10
2017-08-25T16:23:28.913Z,28.10
2017-08-25T16:25:55.235Z,28.10
2017-08-25T16:28:21.595Z,28.00
2017-08-25T16:30:47.906Z,28.00
2017-08-25T16:33:14.269Z,28.00
2017-08-25T16:35:40.593Z,28.00
2017-08-25T16:38:06.938Z,27.90
2017-08-25T16:40:33.345Z,27.90
2017-08-25T16:42:59.744Z,27.90
2017-08-25T16:45:26.092Z,27.80
2017-08-25T16:47:52.495Z,27.80
2017-08-25T16:50:18.917Z,27.80
2017-08-25T16:52:45.339Z,27.70
2017-08-25T16:55:11.660Z,27.70
2017-08-25T16:57:38.050Z,27.60
2017-08-25T17:00:04.384Z,27.60
2017-08-25T17:02:30.716Z,27.60
2017-08-25T17:04:57.151Z,27.50
2017-08-25T17:07:23.503Z,27.40
2017-08-25T17:09:49.915Z,27.40
2017-08-25T17:12:16.294Z,27.40
2017-08-25T17:14:42.804Z,27.30
2017-08-25T17:17:09.146Z,27.30
2017-08-25T17:19:35.538Z,27.30
2017-08-25T17:22:01.888Z,27.20
2017-08-25T17:24:28.206Z,27.20
2017-08-25T17:26:54.591Z,27.20
2017-08-25T17:29:20.987Z,27.20
2017-08-25T17:31:47.335Z,27.10
2017-08-25T17:34:13.735Z,27.10
2017-08-25T17:36:40.099Z,27.10
2017-08-25T17:39:06.506Z,27.10
2017-08-25T17:41:32.835Z,27.10
2017-08-25T17:43:59.183Z,27.00
2017-08-25T17:46:25.552Z,27.00
2017-08-25T17:48:51.881Z,27.00
2017-08-25T17:51:18.207Z,26.90
2017-08-25T17:53:44.768Z,26.90
2017-08-25T17:56:11.199Z,26.90
2017-08-25T17:58:37.618Z,26.90
2017-08-25T18:01:03.969Z,26.90
2017-08-25T18:03:30.329Z,26.90
2017-08-25T18:05:56.707Z,26.80
2017-08-25T18:08:23.032Z,26.80
2017-08-25T18:10:49.577Z,26.80
2017-08-25T18:13:15.912Z,26.80
2017-08-25T18:15:42.311Z,26.70
2017-08-25T18:18:08.666Z,26.70
2017-08-25T18:20:34.991Z,26.70
2017-08-25T18:23:01.393Z,26.60
2017-08-25T18:25:27.761Z,26.60
2017-08-25T18:27:54.116Z,26.50
2017-08-25T18:30:20.551Z,26.50
2017-08-25T18:32:46.869Z,26.50
2017-08-25T18:35:13.196Z,26.40
2017-08-25T18:37:39.647Z,26.40
2017-08-25T18:40:06.038Z,26.30
2017-08-25T18:42:32.444Z,26.30
2017-08-25T18:44:58.800Z,26.30
2017-08-25T18:47:25.207Z,26.20
2017-08-25T18:49:51.582Z,26.20
2017-08-25T18:52:17.957Z,26.20
2017-08-25T18:54:44.285Z,26.20
2017-08-25T18:57:10.606Z,26.10
2017-08-25T18:59:37.021Z,26.10
2017-08-25T19:02:03.396Z,26.10
2017-08-25T19:04:29.712Z,26.10
2017-08-25T19:06:56.353Z,26.00
2017-08-25T19:09:22.696Z,26.00
2017-08-25T19:11:49.039Z,26.00
2017-08-25T19:14:15.412Z,26.00
2017-08-25T19:16:41.736Z,26.00
2017-08-25T19:19:08.113Z,25.90
2017-08-25T19:21:34.721Z,25.90
2017-08-25T19:24:01.140Z,25.90
2017-08-25T19:26:27.482Z,25.80
2017-08-25T19:28:53.951Z,25.70
2017-08-25T19:31:20.312Z,25.70
2017-08-25T19:33:46.715Z,25.60
2017-08-25T19:36:13.198Z,25.50
2017-08-25T19:38:39.686Z,25.40
2017-08-25T19:41:06.071Z,25.40
2017-08-25T19:43:32.534Z,25.40
2017-08-25T19:45:58.859Z,25.30
2017-08-25T19:48:25.240Z,25.30
2017-08-25T19:50:51.751Z,25.20
2017-08-25T19:53:18.125Z,25.10
2017-08-25T19:55:44.608Z,25.10
2017-08-25T19:58:10.988Z,25.10
2017-08-25T20:00:37.349Z,25.00
2017-08-25T20:03:03.676Z,25.00
2017-08-25T20:05:30.046Z,25.00
2017-08-25T20:07:56.491Z,24.90
2017-08-25T20:10:23.020Z,24.90
2017-08-25T20:12:49.374Z,24.80
2017-08-25T20:15:15.777Z,24.80
2017-08-25T20:17:42.178Z,24.70
2017-08-25T20:20:09.280Z,24.70
2017-08-25T20:22:35.643Z,24.60
2017-08-25T20:25:02.103Z,24.60
2017-08-25T20:27:28.553Z,24.60
2017-08-25T20:29:55.009Z,24.50
2017-08-25T20:32:21.327Z,24.50
2017-08-25T20:34:47.731Z,24.50
2017-08-25T20:37:14.101Z,24.40
2017-08-25T20:39:40.430Z,24.40
2017-08-25T20:42:06.797Z,24.30
2017-08-25T20:44:33.116Z,24.30
2017-08-25T20:46:59.438Z,24.30
2017-08-25T20:49:25.814Z,24.20
2017-08-25T20:51:52.126Z,24.20
2017-08-25T20:54:18.497Z,24.20
2017-08-25T20:56:44.980Z,24.10
2017-08-25T20:59:11.320Z,24.10
2017-08-25T21:01:37.779Z,24.00
2017-08-25T21:04:04.117Z,24.00
2017-08-25T21:06:30.434Z,24.00
2017-08-25T21:08:56.836Z,23.90
2017-08-25T21:11:23.259Z,23.90
2017-08-25T21:13:49.785Z,23.80
2017-08-25T21:16:16.108Z,23.80
2017-08-25T21:18:42.513Z,23.80
2017-08-25T21:21:08.946Z,23.70
2017-08-25T21:23:35.398Z,23.70
2017-08-25T21:26:01.972Z,23.70
2017-08-25T21:28:29.042Z,23.60
2017-08-25T21:30:55.504Z,23.60
2017-08-25T21:33:21.902Z,23.60
2017-08-25T21:35:48.297Z,23.60
2017-08-25T21:38:14.731Z,23.50
2017-08-25T21:40:41.201Z,23.60
2017-08-25T21:43:07.580Z,23.50
2017-08-25T21:45:34.026Z,23.50
2017-08-25T21:48:00.459Z,23.50
2017-08-25T21:50:26.780Z,23.50
2017-08-25T21:52:53.150Z,23.40
2017-08-25T21:55:19.476Z,23.40
2017-08-25T21:57:46.750Z,23.40
2017-08-25T22:00:13.163Z,23.40
2017-08-25T22:02:39.551Z,23.30
2017-08-25T22:05:05.978Z,23.30
2017-08-25T22:07:32.741Z,23.20
2017-08-25T22:09:59.137Z,23.20
2017-08-25T22:12:25.466Z,23.20
2017-08-25T22:14:51.829Z,23.20
2017-08-25T22:17:18.245Z,23.20
2017-08-25T22:19:44.585Z,23.10
2017-08-25T22:22:10.912Z,23.10
2017-08-25T22:24:37.281Z,23.10
2017-08-25T22:27:03.605Z,23.10
2017-08-25T22:29:29.929Z,23.00
2017-08-25T22:31:56.331Z,23.00
2017-08-25T22:34:22.702Z,23.00
2017-08-25T22:36:49.401Z,22.90
2017-08-25T22:39:15.734Z,22.90
2017-08-25T22:41:42.128Z,22.90
2017-08-25T22:44:08.562Z,22.90
2017-08-25T22:46:34.911Z,22.90
2017-08-25T22:49:01.285Z,22.80
2017-08-25T22:51:27.627Z,22.80
2017-08-25T22:53:54.004Z,22.80
2017-08-25T22:56:20.440Z,22.80
2017-08-25T22:58:46.846Z,22.70
2017-08-25T23:01:13.196Z,22.70
2017-08-25T23:03:39.804Z,22.70
2017-08-25T23:06:06.132Z,22.70
2017-08-25T23:08:32.476Z,22.70
2017-08-25T23:10:58.862Z,22.70
2017-08-25T23:13:25.219Z,22.60
2017-08-25T23:15:51.616Z,22.60
2017-08-25T23:18:18.008Z,22.60
2017-08-25T23:20:44.383Z,22.60
2017-08-25T23:23:10.692Z,22.60
2017-08-25T23:25:37.020Z,22.60
2017-08-25T23:28:03.371Z,22.60
2017-08-25T23:30:31.622Z,22.50
2017-08-25T23:32:57.994Z,22.50
2017-08-25T23:35:24.577Z,22.40
2017-08-25T23:37:50.916Z,22.40
2017-08-25T23:40:17.272Z,22.40
2017-08-25T23:42:43.635Z,22.40
2017-08-25T23:45:10.020Z,22.40
2017-08-25T23:47:36.361Z,22.30
2017-08-25T23:50:02.742Z,22.30
2017-08-25T23:52:29.116Z,22.30
2017-08-25T23:54:55.452Z,22.20
2017-08-25T23:57:21.975Z,22.20
2017-08-25T23:59:48.333Z,22.20
